createdAt,value
2022-07-29T00:02:26.192Z,21.79
2022-07-29T00:04:52.932Z,21.79
2022-07-29T00:07:19.735Z,21.81
2022-07-29T00:09:52.110Z,21.79
2022-07-29T00:12:25.114Z,21.80
2022-07-29T00:14:56.284Z,21.77
2022-07-29T00:17:26.067Z,21.78
2022-07-29T00:19:58.569Z,21.75
2022-07-29T00:22:25.073Z,21.74
2022-07-29T00:24:51.632Z,21.71
2022-07-29T00:27:19.073Z,21.73
2022-07-29T00:29:45.816Z,21.71
2022-07-29T00:32:12.361Z,21.67
2022-07-29T00:34:57.562Z,21.66
2022-07-29T00:37:24.168Z,21.64
2022-07-29T00:39:50.755Z,21.59
2022-07-29T00:42:18.303Z,21.59
2022-07-29T00:44:44.824Z,21.58
2022-07-29T00:47:12.770Z,21.59
2022-07-29T00:49:41.078Z,21.61
2022-07-29T00:52:09.051Z,21.58
2022-07-29T00:54:37.412Z,21.61
2022-07-29T00:57:10.932Z,21.56
2022-07-29T00:59:39.552Z,21.58
2022-07-29T01:02:06.137Z,21.56
2022-07-29T01:04:33.277Z,21.56
2022-07-29T01:07:02.444Z,21.57
2022-07-29T01:09:34.461Z,21.61
2022-07-29T01:12:17.113Z,21.59
2022-07-29T01:14:44.586Z,21.56
2022-07-29T01:17:29.687Z,21.58
2022-07-29T01:20:03.935Z,21.58
2022-07-29T01:22:42.566Z,21.53
2022-07-29T01:25:33.874Z,21.56
2022-07-29T01:28:33.712Z,21.56
2022-07-29T01:31:01.438Z,21.54
2022-07-29T01:33:50.414Z,21.55
2022-07-29T01:36:34.648Z,21.53
2022-07-29T01:39:08.600Z,21.52
2022-07-29T01:41:38.272Z,21.49
2022-07-29T01:44:21.138Z,21.47
2022-07-29T01:46:55.081Z,21.48
2022-07-29T01:49:28.097Z,21.45
2022-07-29T01:52:01.555Z,21.42
2022-07-29T01:54:36.711Z,21.39
2022-07-29T01:57:07.039Z,21.42
2022-07-29T01:59:36.383Z,21.42
2022-07-29T02:02:03.379Z,21.40
2022-07-29T02:04:33.430Z,21.35
2022-07-29T02:07:04.930Z,21.26
2022-07-29T02:09:34.281Z,21.23
2022-07-29T02:12:02.976Z,21.22
2022-07-29T02:14:34.305Z,21.12
2022-07-29T02:17:02.676Z,21.06
2022-07-29T02:19:32.739Z,21.03
2022-07-29T02:22:01.023Z,21.01
2022-07-29T02:24:29.549Z,20.95
2022-07-29T02:26:58.845Z,20.97
2022-07-29T02:29:29.281Z,20.89
2022-07-29T02:31:59.414Z,20.72
2022-07-29T02:34:27.751Z,20.50
2022-07-29T02:36:56.315Z,20.39
2022-07-29T02:39:24.265Z,20.29
2022-07-29T02:41:56.589Z,20.22
2022-07-29T02:44:27.333Z,20.20
2022-07-29T02:47:16.360Z,20.20
2022-07-29T02:50:05.336Z,20.04
2022-07-29T02:52:46.151Z,19.96
2022-07-29T02:55:31.506Z,19.90
2022-07-29T02:58:15.327Z,19.85
2022-07-29T03:00:42.722Z,19.77
2022-07-29T03:03:14.129Z,19.69
2022-07-29T03:05:41.464Z,19.62
2022-07-29T03:08:11.517Z,19.56
2022-07-29T03:10:41.342Z,19.49
2022-07-29T03:13:08.840Z,19.46
2022-07-29T03:15:36.703Z,19.39
2022-07-29T03:18:03.773Z,19.39
2022-07-29T03:20:30.595Z,19.34
2022-07-29T03:22:57.116Z,19.32
2022-07-29T03:25:23.672Z,19.29
2022-07-29T03:27:51.052Z,19.24
2022-07-29T03:30:18.286Z,19.23
2022-07-29T03:32:48.482Z,19.21
2022-07-29T03:35:17.467Z,19.15
2022-07-29T03:37:44.932Z,19.09
2022-07-29T03:40:15.350Z,19.03
2022-07-29T03:42:43.460Z,19.00
2022-07-29T03:45:16.378Z,18.93
2022-07-29T03:47:51.017Z,18.92
2022-07-29T03:50:21.140Z,18.84
2022-07-29T03:52:50.054Z,18.70
2022-07-29T03:55:16.919Z,18.68
2022-07-29T03:57:46.164Z,18.60
2022-07-29T04:00:13.240Z,18.62
2022-07-29T04:02:40.317Z,18.60
2022-07-29T04:05:13.450Z,18.55
2022-07-29T04:07:40.473Z,18.58
2022-07-29T04:10:10.374Z,18.56
2022-07-29T04:12:36.875Z,18.56
2022-07-29T04:15:07.140Z,18.56
2022-07-29T04:17:33.639Z,18.59
2022-07-29T04:20:00.208Z,18.54
2022-07-29T04:22:26.760Z,18.51
2022-07-29T04:24:54.031Z,18.45
2022-07-29T04:27:20.514Z,18.46
2022-07-29T04:29:57.102Z,18.41
2022-07-29T04:32:24.779Z,18.41
2022-07-29T04:34:51.215Z,18.46
2022-07-29T04:37:18.693Z,18.48
2022-07-29T04:39:45.121Z,18.48
2022-07-29T04:42:11.593Z,18.52
2022-07-29T04:44:39.825Z,18.54
2022-07-29T04:47:09.998Z,18.59
2022-07-29T04:49:39.151Z,18.57
2022-07-29T04:52:07.281Z,18.63
2022-07-29T04:57:00.964Z,19.14
2022-07-29T04:59:28.003Z,19.62
2022-07-29T05:01:54.602Z,20.22
2022-07-29T05:04:21.251Z,20.78
2022-07-29T05:06:47.969Z,21.35
2022-07-29T05:09:14.486Z,21.84
2022-07-29T05:11:40.967Z,22.23
2022-07-29T05:14:07.425Z,22.57
2022-07-29T05:16:34.487Z,22.88
2022-07-29T05:19:01.055Z,23.30
2022-07-29T05:21:27.546Z,23.87
2022-07-29T05:23:54.048Z,24.22
2022-07-29T05:26:20.530Z,24.75
2022-07-29T05:28:47.066Z,25.35
2022-07-29T05:31:15.621Z,25.83
2022-07-29T05:33:42.814Z,26.36
2022-07-29T05:36:09.367Z,26.68
2022-07-29T05:38:36.609Z,26.94
2022-07-29T05:41:03.466Z,27.18
2022-07-29T05:43:30.224Z,27.71
2022-07-29T05:45:57.673Z,28.14
2022-07-29T05:48:24.210Z,28.50
2022-07-29T05:50:50.790Z,28.75
2022-07-29T05:53:18.853Z,28.89
2022-07-29T05:55:46.805Z,29.38
2022-07-29T05:58:13.420Z,29.70
2022-07-29T06:00:39.925Z,29.80
2022-07-29T06:03:06.492Z,30.01
2022-07-29T06:05:33.070Z,30.02
2022-07-29T06:07:59.595Z,30.08
2022-07-29T06:10:28.943Z,29.96
2022-07-29T06:12:55.675Z,30.13
2022-07-29T06:15:22.216Z,29.59
2022-07-29T06:18:00.126Z,29.41
2022-07-29T06:20:32.091Z,29.64
2022-07-29T06:22:59.180Z,29.89
2022-07-29T06:25:25.787Z,29.99
2022-07-29T06:27:52.241Z,30.22
2022-07-29T06:30:18.750Z,30.17
2022-07-29T06:32:45.250Z,29.79
2022-07-29T06:35:41.703Z,29.74
2022-07-29T06:37:59.814Z,29.88
2022-07-29T06:40:45.635Z,29.97
2022-07-29T06:43:12.290Z,30.29
2022-07-29T06:45:42.207Z,30.39
2022-07-29T06:48:09.419Z,30.61
2022-07-29T06:50:35.913Z,30.67
2022-07-29T06:53:02.385Z,30.61
2022-07-29T06:55:28.889Z,30.81
2022-07-29T06:57:55.358Z,30.32
2022-07-29T07:00:21.883Z,30.24
2022-07-29T07:02:48.893Z,30.39
2022-07-29T07:05:15.489Z,30.63
2022-07-29T07:07:41.988Z,30.61
2022-07-29T07:10:09.209Z,30.70
2022-07-29T07:12:35.585Z,30.82
2022-07-29T07:15:01.960Z,31.28
2022-07-29T07:17:28.384Z,30.82
2022-07-29T07:19:54.745Z,30.99
2022-07-29T07:22:21.321Z,30.71
2022-07-29T07:24:47.760Z,30.34
2022-07-29T07:27:14.279Z,29.99
2022-07-29T07:29:42.483Z,29.74
2022-07-29T07:32:11.052Z,29.59
2022-07-29T07:34:38.894Z,30.26
2022-07-29T07:37:06.544Z,30.35
2022-07-29T07:39:33.093Z,30.36
2022-07-29T07:41:59.920Z,30.54
2022-07-29T07:44:26.559Z,30.67
2022-07-29T07:46:53.270Z,30.19
2022-07-29T07:49:21.323Z,30.13
2022-07-29T07:51:50.386Z,30.67
2022-07-29T07:54:17.922Z,31.00
2022-07-29T07:56:45.046Z,30.85
2022-07-29T07:59:11.577Z,30.65
2022-07-29T08:01:49.960Z,30.64
2022-07-29T08:04:28.020Z,30.53
2022-07-29T08:06:56.636Z,30.01
2022-07-29T08:09:29.766Z,29.83
2022-07-29T08:11:58.662Z,29.43
2022-07-29T08:14:25.394Z,29.07
2022-07-29T08:16:53.680Z,29.01
2022-07-29T08:19:20.405Z,29.12
2022-07-29T08:21:46.983Z,28.98
2022-07-29T08:24:32.125Z,28.74
2022-07-29T08:26:58.611Z,28.56
2022-07-29T08:29:25.115Z,28.44
2022-07-29T08:31:51.894Z,28.78
2022-07-29T08:34:18.723Z,29.52
2022-07-29T08:36:52.774Z,30.17
2022-07-29T08:39:19.317Z,30.64
2022-07-29T08:41:48.760Z,31.42
2022-07-29T08:44:30.554Z,31.66
2022-07-29T08:46:57.840Z,32.45
2022-07-29T08:49:24.412Z,33.09
2022-07-29T08:51:52.173Z,33.39
2022-07-29T08:54:19.434Z,32.82
2022-07-29T08:56:48.978Z,33.03
2022-07-29T08:59:16.093Z,32.79
2022-07-29T09:01:45.247Z,32.33
2022-07-29T09:04:13.115Z,31.41
2022-07-29T09:06:44.606Z,31.13
2022-07-29T09:09:11.362Z,30.51
2022-07-29T09:11:38.314Z,30.07
2022-07-29T09:14:04.783Z,30.10
2022-07-29T09:16:55.461Z,30.22
2022-07-29T09:19:27.512Z,30.56
2022-07-29T09:22:03.555Z,31.00
2022-07-29T09:24:44.205Z,31.40
2022-07-29T09:27:27.197Z,31.97
2022-07-29T09:30:01.989Z,32.09
2022-07-29T09:32:29.250Z,32.17
2022-07-29T09:35:15.191Z,32.44
2022-07-29T09:37:41.783Z,32.45
2022-07-29T09:40:31.635Z,32.71
2022-07-29T09:42:58.329Z,32.60
2022-07-29T09:45:29.478Z,32.02
2022-07-29T09:47:58.409Z,31.47
2022-07-29T09:50:36.383Z,30.97
2022-07-29T09:53:02.867Z,30.54
2022-07-29T09:55:29.405Z,30.30
2022-07-29T09:58:16.407Z,29.93
2022-07-29T10:00:43.895Z,29.55
2022-07-29T10:03:10.590Z,29.54
2022-07-29T10:05:40.462Z,29.42
2022-07-29T10:08:07.014Z,29.58
2022-07-29T10:10:36.008Z,29.61
2022-07-29T10:13:08.918Z,29.67
2022-07-29T10:15:41.894Z,29.73
2022-07-29T10:18:09.938Z,29.68
2022-07-29T10:20:37.284Z,29.96
2022-07-29T10:23:04.090Z,30.31
2022-07-29T10:25:31.195Z,30.68
2022-07-29T10:27:58.307Z,30.82
2022-07-29T10:30:28.909Z,30.88
2022-07-29T10:33:38.600Z,30.69
2022-07-29T10:36:34.675Z,31.02
2022-07-29T10:39:44.784Z,30.88
2022-07-29T10:42:20.504Z,31.12
2022-07-29T10:45:01.550Z,31.09
2022-07-29T10:47:28.535Z,31.20
2022-07-29T10:50:01.390Z,31.11
2022-07-29T10:52:50.047Z,31.16
2022-07-29T10:55:43.101Z,30.95
2022-07-29T10:58:17.802Z,31.04
2022-07-29T11:00:45.929Z,31.19
2022-07-29T11:03:41.572Z,31.34
2022-07-29T11:06:16.608Z,31.44
2022-07-29T11:08:44.690Z,31.48
2022-07-29T11:11:32.215Z,31.22
2022-07-29T11:13:58.981Z,31.37
2022-07-29T11:16:26.617Z,30.93
2022-07-29T11:19:13.417Z,30.92
2022-07-29T11:21:55.512Z,30.83
2022-07-29T11:24:32.418Z,30.52
2022-07-29T11:27:19.858Z,30.51
2022-07-29T11:29:54.009Z,30.07
2022-07-29T11:32:23.381Z,29.93
2022-07-29T11:35:37.481Z,29.61
2022-07-29T11:38:28.381Z,29.59
2022-07-29T11:41:25.113Z,29.54
2022-07-29T11:43:59.841Z,29.42
2022-07-29T11:46:47.491Z,29.52
2022-07-29T11:49:15.317Z,29.51
2022-07-29T11:51:48.351Z,29.48
2022-07-29T11:54:27.475Z,29.57
2022-07-29T11:56:54.937Z,29.56
2022-07-29T11:59:22.845Z,30.00
2022-07-29T12:02:18.422Z,30.10
2022-07-29T12:04:55.661Z,30.11
2022-07-29T12:07:34.631Z,30.17
2022-07-29T12:10:03.060Z,30.44
2022-07-29T12:12:29.525Z,30.58
2022-07-29T12:14:56.323Z,30.75
2022-07-29T12:17:36.026Z,30.82
2022-07-29T12:20:05.247Z,30.85
2022-07-29T12:22:41.849Z,31.00
2022-07-29T12:28:07.392Z,31.46
2022-07-29T12:30:40.627Z,31.61
2022-07-29T12:33:30.486Z,31.49
2022-07-29T12:36:06.955Z,31.62
2022-07-29T12:38:41.214Z,31.38
2022-07-29T12:41:07.965Z,31.48
2022-07-29T12:43:34.540Z,31.38
2022-07-29T12:46:13.634Z,31.25
2022-07-29T12:48:42.452Z,31.12
2022-07-29T12:51:11.032Z,30.76
2022-07-29T12:53:37.936Z,30.79
2022-07-29T12:56:20.710Z,30.64
2022-07-29T12:58:52.709Z,30.56
2022-07-29T13:01:21.051Z,30.52
2022-07-29T13:04:01.071Z,30.49
2022-07-29T13:06:30.586Z,30.75
2022-07-29T13:09:14.497Z,30.77
2022-07-29T13:11:48.417Z,30.84
2022-07-29T13:14:35.848Z,31.03
2022-07-29T13:17:02.282Z,31.29
2022-07-29T13:19:42.192Z,31.54
2022-07-29T13:22:14.319Z,31.56
2022-07-29T13:24:58.371Z,31.67
2022-07-29T13:27:27.080Z,31.58
2022-07-29T13:29:57.419Z,31.27
2022-07-29T13:32:28.788Z,31.35
2022-07-29T13:35:01.208Z,31.46
2022-07-29T13:37:33.822Z,30.96
2022-07-29T13:40:00.855Z,30.84
2022-07-29T13:42:27.515Z,30.85
2022-07-29T13:44:53.988Z,30.66
2022-07-29T13:47:21.692Z,30.49
2022-07-29T13:49:48.566Z,30.21
2022-07-29T13:52:16.526Z,30.10
2022-07-29T13:54:44.084Z,29.76
2022-07-29T13:57:11.987Z,29.65
2022-07-29T13:59:43.016Z,29.50
2022-07-29T14:02:11.261Z,29.10
2022-07-29T14:04:39.714Z,28.45
2022-07-29T14:07:06.536Z,28.32
2022-07-29T14:09:37.443Z,28.13
2022-07-29T14:12:08.947Z,27.75
2022-07-29T14:14:37.298Z,27.41
2022-07-29T14:17:04.351Z,26.74
2022-07-29T14:19:33.018Z,26.23
2022-07-29T14:22:00.080Z,25.55
2022-07-29T14:24:26.924Z,24.75
2022-07-29T14:26:53.463Z,24.25
2022-07-29T14:29:20.027Z,23.29
2022-07-29T14:31:46.653Z,23.01
2022-07-29T14:34:16.366Z,22.28
2022-07-29T14:36:43.146Z,22.06
2022-07-29T14:39:09.782Z,21.70
2022-07-29T14:41:36.354Z,21.43
2022-07-29T14:44:03.013Z,21.24
2022-07-29T14:46:29.868Z,20.97
2022-07-29T14:48:56.417Z,20.81
2022-07-29T14:51:22.917Z,20.59
2022-07-29T14:53:49.373Z,20.52
2022-07-29T14:56:36.103Z,20.23
2022-07-29T14:59:02.382Z,20.14
2022-07-29T15:01:29.006Z,20.02
2022-07-29T15:03:59.518Z,20.01
2022-07-29T15:06:26.929Z,19.97
2022-07-29T15:08:53.527Z,19.93
2022-07-29T15:11:20.010Z,19.87
2022-07-29T15:13:46.517Z,19.81
2022-07-29T15:16:13.153Z,19.80
2022-07-29T15:18:39.638Z,19.82
2022-07-29T15:21:07.890Z,19.84
2022-07-29T15:23:37.201Z,19.90
2022-07-29T15:26:04.952Z,19.96
2022-07-29T15:28:31.558Z,20.01
2022-07-29T15:30:58.164Z,19.95
2022-07-29T15:33:24.791Z,19.93
2022-07-29T15:35:51.310Z,19.95
2022-07-29T15:38:18.270Z,19.88
2022-07-29T15:40:45.408Z,19.87
2022-07-29T15:43:12.563Z,19.94
2022-07-29T15:45:41.316Z,19.96
2022-07-29T15:48:08.935Z,20.04
2022-07-29T15:50:35.762Z,20.01
2022-07-29T15:53:02.615Z,19.91
2022-07-29T15:55:29.196Z,19.77
2022-07-29T15:58:00.292Z,19.73
2022-07-29T16:00:27.185Z,19.69
2022-07-29T16:02:53.682Z,19.69
2022-07-29T16:05:20.297Z,19.67
2022-07-29T16:07:46.748Z,19.61
2022-07-29T16:10:13.290Z,19.56
2022-07-29T16:12:39.792Z,19.54
2022-07-29T16:15:10.007Z,19.49
2022-07-29T16:17:37.871Z,19.50
2022-07-29T16:20:06.122Z,19.50
2022-07-29T16:22:32.763Z,19.48
2022-07-29T16:24:59.313Z,19.46
2022-07-29T16:27:34.299Z,19.41
2022-07-29T16:30:05.268Z,19.32
2022-07-29T16:32:31.788Z,19.26
2022-07-29T16:34:58.646Z,19.05
2022-07-29T16:37:25.220Z,19.00
2022-07-29T16:39:55.317Z,19.01
2022-07-29T16:42:44.286Z,18.98
2022-07-29T16:45:08.967Z,19.00
2022-07-29T16:47:36.111Z,19.03
2022-07-29T16:50:02.790Z,19.06
2022-07-29T16:52:29.428Z,19.12
2022-07-29T16:54:56.013Z,19.13
2022-07-29T16:57:22.510Z,19.13
2022-07-29T16:59:50.993Z,19.17
2022-07-29T17:02:18.003Z,19.15
2022-07-29T17:04:44.525Z,19.16
2022-07-29T17:07:11.030Z,19.23
2022-07-29T17:09:37.538Z,19.15
2022-07-29T17:12:04.475Z,19.18
2022-07-29T17:14:31.194Z,19.21
2022-07-29T17:17:01.064Z,19.10
2022-07-29T17:19:35.303Z,19.06
2022-07-29T17:22:17.116Z,19.09
2022-07-29T17:24:46.116Z,19.12
2022-07-29T17:27:12.752Z,19.11
2022-07-29T17:29:39.411Z,19.14
2022-07-29T17:32:07.564Z,19.25
2022-07-29T17:34:38.765Z,19.27
2022-07-29T17:37:07.860Z,19.22
2022-07-29T17:39:35.617Z,19.19
2022-07-29T17:42:03.391Z,19.14
2022-07-29T17:44:30.117Z,19.05
2022-07-29T17:46:56.969Z,19.11
2022-07-29T17:49:23.899Z,19.03
2022-07-29T17:51:50.388Z,19.08
2022-07-29T17:54:16.828Z,19.09
2022-07-29T17:56:43.302Z,19.16
2022-07-29T17:59:10.288Z,19.21
2022-07-29T18:01:38.104Z,19.25
2022-07-29T18:04:04.780Z,19.27
2022-07-29T18:06:31.270Z,19.28
2022-07-29T18:08:57.789Z,19.26
2022-07-29T18:11:24.306Z,19.23
2022-07-29T18:13:50.943Z,19.16
2022-07-29T18:16:18.154Z,19.13
2022-07-29T18:18:45.545Z,19.17
2022-07-29T18:21:12.097Z,19.11
2022-07-29T18:23:38.541Z,19.11
2022-07-29T18:26:05.207Z,19.13
2022-07-29T18:28:32.745Z,19.18
2022-07-29T18:31:00.225Z,19.17
2022-07-29T18:33:26.771Z,19.17
2022-07-29T18:36:10.598Z,19.18
2022-07-29T18:38:39.278Z,19.18
2022-07-29T18:41:05.741Z,19.17
2022-07-29T18:43:32.199Z,19.16
2022-07-29T18:45:58.665Z,19.17
2022-07-29T18:48:25.168Z,19.17
2022-07-29T18:50:51.650Z,19.17
2022-07-29T18:53:18.235Z,19.15
2022-07-29T18:55:44.919Z,19.11
2022-07-29T18:58:11.390Z,19.08
2022-07-29T19:00:38.044Z,19.06
2022-07-29T19:03:04.651Z,19.03
2022-07-29T19:05:31.482Z,19.00
2022-07-29T19:07:57.945Z,19.00
2022-07-29T19:10:24.483Z,18.96
2022-07-29T19:12:51.021Z,18.96
2022-07-29T19:15:20.299Z,18.94
2022-07-29T19:17:47.966Z,18.94
2022-07-29T19:20:14.661Z,18.94
2022-07-29T19:22:41.169Z,18.88
2022-07-29T19:25:08.258Z,18.91
2022-07-29T19:27:34.701Z,18.81
2022-07-29T19:30:03.316Z,18.78
2022-07-29T19:32:29.891Z,18.77
2022-07-29T19:35:15.159Z,18.76
2022-07-29T19:37:41.609Z,18.77
2022-07-29T19:40:10.014Z,18.75
2022-07-29T19:42:36.502Z,18.72
2022-07-29T19:45:03.377Z,18.70
2022-07-29T19:47:29.942Z,18.71
2022-07-29T19:49:56.404Z,18.69
2022-07-29T19:52:22.830Z,18.69
2022-07-29T19:54:49.342Z,18.69
2022-07-29T19:57:15.804Z,18.68
2022-07-29T19:59:45.820Z,18.69
2022-07-29T20:02:13.279Z,18.70
2022-07-29T20:04:40.264Z,18.71
2022-07-29T20:07:07.059Z,18.73
2022-07-29T20:09:33.648Z,18.68
2022-07-29T20:12:00.347Z,18.64
2022-07-29T20:14:27.061Z,18.61
2022-07-29T20:16:56.449Z,18.62
2022-07-29T20:19:22.931Z,18.53
2022-07-29T20:21:51.360Z,18.51
2022-07-29T20:24:18.764Z,18.45
2022-07-29T20:26:45.206Z,18.45
2022-07-29T20:29:11.681Z,18.47
2022-07-29T20:31:38.237Z,18.45
2022-07-29T20:34:04.914Z,18.36
2022-07-29T20:36:31.689Z,18.34
2022-07-29T20:39:00.010Z,18.39
2022-07-29T20:41:26.661Z,18.41
2022-07-29T20:43:53.112Z,18.40
2022-07-29T20:46:19.662Z,18.43
2022-07-29T20:48:47.131Z,18.40
2022-07-29T20:51:14.628Z,18.43
2022-07-29T20:53:41.591Z,18.43
2022-07-29T20:56:08.528Z,18.44
2022-07-29T20:58:36.212Z,18.44
2022-07-29T21:01:03.145Z,18.49
2022-07-29T21:03:29.762Z,18.49
2022-07-29T21:05:56.469Z,18.50
2022-07-29T21:08:23.044Z,18.49
2022-07-29T21:10:49.567Z,18.51
2022-07-29T21:13:16.616Z,18.52
2022-07-29T21:15:46.213Z,18.50
2022-07-29T21:18:30.519Z,18.50
2022-07-29T21:21:00.434Z,18.48
2022-07-29T21:23:27.638Z,18.46
2022-07-29T21:25:54.919Z,18.48
2022-07-29T21:28:27.405Z,18.44
2022-07-29T21:30:58.813Z,18.43
2022-07-29T21:33:28.482Z,18.38
2022-07-29T21:38:41.853Z,18.37
2022-07-29T21:41:08.449Z,18.36
2022-07-29T21:43:34.915Z,18.34
2022-07-29T21:46:01.437Z,18.34
2022-07-29T21:48:28.588Z,18.31
2022-07-29T21:50:55.585Z,18.28
2022-07-29T21:53:22.296Z,18.29
2022-07-29T21:55:50.705Z,18.29
2022-07-29T21:58:18.151Z,18.32
2022-07-29T22:00:44.822Z,18.31
2022-07-29T22:03:11.509Z,18.29
2022-07-29T22:05:38.117Z,18.30
2022-07-29T22:08:04.921Z,18.29
2022-07-29T22:10:31.392Z,18.28
2022-07-29T22:12:59.143Z,18.27
2022-07-29T22:15:26.243Z,18.28
2022-07-29T22:17:53.103Z,18.28
2022-07-29T22:20:20.500Z,18.26
2022-07-29T22:22:48.135Z,18.26
2022-07-29T22:25:14.626Z,18.27
2022-07-29T22:27:41.376Z,18.28
2022-07-29T22:30:08.947Z,18.28
2022-07-29T22:32:36.946Z,18.26
2022-07-29T22:35:03.651Z,18.26
2022-07-29T22:37:30.215Z,18.27
2022-07-29T22:39:56.851Z,18.27
2022-07-29T22:42:23.684Z,18.21
2022-07-29T22:44:50.354Z,18.18
2022-07-29T22:47:16.935Z,18.15
2022-07-29T22:49:43.396Z,18.10
2022-07-29T22:52:09.977Z,18.05
2022-07-29T22:54:38.243Z,18.07
2022-07-29T22:57:05.629Z,18.05
2022-07-29T23:01:59.321Z,17.93
2022-07-29T23:04:25.809Z,17.89
2022-07-29T23:06:52.325Z,17.86
2022-07-29T23:09:18.949Z,17.83
2022-07-29T23:11:46.107Z,17.83
2022-07-29T23:14:12.807Z,17.87
2022-07-29T23:16:39.334Z,17.75
2022-07-29T23:19:05.854Z,17.69
2022-07-29T23:21:32.534Z,17.69
2022-07-29T23:23:59.059Z,17.62
2022-07-29T23:26:25.588Z,17.61
2022-07-29T23:28:52.072Z,17.60
2022-07-29T23:31:18.939Z,17.59
2022-07-29T23:33:45.442Z,17.56
2022-07-29T23:36:11.911Z,17.54
2022-07-29T23:38:41.417Z,17.51
2022-07-29T23:41:09.721Z,17.51
2022-07-29T23:43:39.320Z,17.49
2022-07-29T23:46:06.374Z,17.46
2022-07-29T23:48:33.566Z,17.44
2022-07-29T23:51:01.187Z,17.42
2022-07-29T23:53:28.523Z,17.42
2022-07-29T23:55:56.142Z,17.42
2022-07-29T23:58:22.875Z,17.44
